| time (UTC) | temp F | wind direction | speed MPH | gust MPH | rain 1hr in | rain 24hr in | rain mn in | humidity % | barometer mb |
| 20260502130324 | 41 | 336 | 0.0 | 0.0 | 0.00 | 0.00 | 0.00 | 97 | 985.4 |
| 20260502123319 | 38 | 336 | 0.0 | 0.0 | 0.00 | 0.00 | 0.00 | 97 | 985.4 |
| 20260502122727 | 38 | 336 | 0.0 | 0.0 | 0.00 | 0.00 | 0.00 | 97 | 985.4 |
| 20260502122144 | 38 | 336 | 0.0 | 0.0 | 0.00 | 0.00 | 0.00 | 97 | 985.7 |
| 20260502121540 | 37 | 336 | 0.0 | 0.0 | 0.00 | 0.00 | 0.00 | 97 | 985.4 |
| 20260502120923 | 37 | 336 | 0.0 | 0.0 | 0.00 | 0.00 | 0.00 | 97 | 985.4 |
| 20260502115717 | 36 | 337 | 0.0 | 0.0 | 0.00 | 0.00 | 0.00 | 97 | 985.7 |
| 20260502114526 | 36 | 337 | 0.0 | 0.0 | 0.00 | 0.00 | 0.00 | 97 | 985.7 |
| 20260502113932 | 35 | 337 | 0.0 | 0.0 | 0.00 | 0.00 | 0.00 | 97 | 985.7 |
| 20260502113336 | 35 | 337 | 0.0 | 0.0 | 0.00 | 0.00 | 0.00 | 97 | 985.4 |
| 20260502112731 | 35 | 337 | 0.0 | 0.0 | 0.00 | 0.00 | 0.00 | 97 | 985.7 |
| 20260502111521 | 35 | 337 | 0.0 | 0.0 | 0.00 | 0.00 | 0.00 | 97 | 985.7 |
| 20260502110923 | 35 | 337 | 0.0 | 0.0 | 0.00 | 0.00 | 0.00 | 97 | 985.4 |
| 20260502105717 | 35 | 336 | 0.0 | 0.0 | 0.00 | 0.00 | 0.00 | 97 | 985.4 |
| 20260502105151 | 35 | 335 | 0.0 | 0.0 | 0.00 | 0.00 | 0.00 | 97 | 985.1 |
| 20260502104512 | 34 | 335 | 0.0 | 0.0 | 0.00 | 0.00 | 0.00 | 97 | 985.1 |
| 20260502103944 | 34 | 337 | 0.0 | 0.0 | 0.00 | 0.00 | 0.00 | 97 | 985.4 |
| 20260502103330 | 34 | 337 | 0.0 | 0.0 | 0.00 | 0.00 | 0.00 | 97 | 985.4 |
| 20260502102722 | 35 | 337 | 0.0 | 0.0 | 0.00 | 0.00 | 0.00 | 97 | 985.7 |
| 20260502102128 | 34 | 337 | 0.0 | 0.0 | 0.00 | 0.00 | 0.00 | 97 | 985.7 |
| 20260502100935 | 35 | 337 | 0.0 | 0.0 | 0.00 | 0.00 | 0.00 | 97 | 985.7 |
| 20260502100347 | 35 | 337 | 0.0 | 0.0 | 0.00 | 0.00 | 0.00 | 97 | 985.7 |
| 20260502090948 | 36 | 336 | 0.0 | 0.0 | 0.00 | 0.00 | 0.00 | 97 | 985.7 |
| 20260502090333 | 36 | 336 | 0.0 | 0.0 | 0.00 | 0.00 | 0.00 | 97 | 985.7 |
| 20260502071526 | 38 | 335 | 0.0 | 0.0 | 0.00 | 0.00 | 0.00 | 95 | 985.1 |
| 20260502070913 | 38 | 335 | 0.0 | 0.0 | 0.00 | 0.00 | 0.00 | 95 | 985.1 |
| 20260502070337 | 38 | 336 | 0.0 | 0.0 | 0.00 | 0.00 | 0.00 | 95 | 985.1 |
| 20260502065712 | 39 | 336 | 0.0 | 0.0 | 0.00 | 0.00 | 0.00 | 95 | 985.1 |
| 20260502065141 | 39 | 333 | 0.0 | 0.0 | 0.00 | 0.00 | 0.00 | 95 | 985.1 |
| 20260502063913 | 39 | 336 | 0.0 | 0.0 | 0.00 | 0.00 | 0.00 | 94 | 985.4 |
| 20260502063326 | 39 | 340 | 0.0 | 0.0 | 0.00 | 0.00 | 0.00 | 94 | 985.4 |
| 20260502062727 | 39 | 336 | 0.0 | 0.0 | 0.00 | 0.00 | 0.00 | 94 | 985.4 |
| 20260502062149 | 40 | 336 | 0.0 | 0.0 | 0.00 | 0.00 | 0.00 | 93 | 985.7 |
| 20260502061532 | 40 | 335 | 0.0 | 0.0 | 0.00 | 0.00 | 0.00 | 93 | 985.7 |
| 20260502060950 | 40 | 332 | 0.0 | 0.0 | 0.00 | 0.00 | 0.00 | 93 | 985.7 |
| 20260502060338 | 41 | 337 | 0.0 | 0.0 | 0.00 | 0.00 | 0.00 | 92 | 985.7 |
| 20260502055713 | 41 | 340 | 0.0 | 0.0 | 0.00 | 0.00 | 0.00 | 92 | 985.7 |
| 20260502055137 | 41 | 340 | 0.0 | 0.0 | 0.00 | 0.00 | 0.00 | 91 | 985.7 |
| 20260502054539 | 42 | 331 | 0.0 | 0.0 | 0.00 | 0.00 | 0.00 | 91 | 985.7 |
| 20260502053936 | 42 | 337 | 0.0 | 0.0 | 0.00 | 0.00 | 0.00 | 90 | 985.7 |
| 20260502053342 | 42 | 337 | 0.0 | 0.0 | 0.00 | 0.00 | 0.00 | 89 | 985.7 |
| 20260502052742 | 43 | 334 | 0.0 | 0.0 | 0.00 | 0.00 | 0.00 | 89 | 985.7 |
| 20260502052136 | 43 | 336 | 0.0 | 0.0 | 0.00 | 0.00 | 0.00 | 87 | 985.7 |
| 20260502051537 | 44 | 344 | 0.0 | 0.0 | 0.00 | 0.00 | 0.00 | 86 | 985.7 |
| 20260502050947 | 44 | 344 | 0.0 | 0.0 | 0.00 | 0.00 | 0.00 | 85 | 985.7 |
| 20260502045713 | 46 | 344 | 0.0 | 0.0 | 0.00 | 0.00 | 0.00 | 83 | 985.7 |
| 20260502045152 | 46 | 348 | 0.0 | 0.0 | 0.00 | 0.00 | 0.00 | 82 | 985.7 |
| 20260502043951 | 47 | 348 | 0.0 | 0.0 | 0.00 | 0.00 | 0.00 | 81 | 985.4 |
| 20260502042725 | 47 | 348 | 0.0 | 0.0 | 0.00 | 0.00 | 0.00 | 79 | 985.4 |
| 20260502042129 | 47 | 348 | 0.0 | 0.0 | 0.00 | 0.00 | 0.00 | 78 | 985.4 |
| 20260502041554 | 48 | 348 | 0.0 | 0.0 | 0.00 | 0.00 | 0.00 | 79 | 985.4 |
| 20260502040935 | 48 | 348 | 0.0 | 0.0 | 0.00 | 0.00 | 0.00 | 75 | 985.4 |
| 20260502040353 | 48 | 348 | 0.0 | 0.0 | 0.00 | 0.00 | 0.00 | 73 | 985.7 |
| 20260502035735 | 48 | 348 | 0.0 | 0.0 | 0.00 | 0.00 | 0.00 | 73 | 985.7 |
| 20260502033952 | 49 | 348 | 0.0 | 1.0 | 0.00 | 0.00 | 0.00 | 71 | 985.7 |
| 20260502033341 | 49 | 355 | 1.0 | 2.0 | 0.00 | 0.00 | 0.00 | 70 | 985.7 |
| 20260502032121 | 49 | 42 | 2.0 | 2.0 | 0.00 | 0.00 | 0.00 | 70 | 985.4 |
| 20260502031527 | 49 | 26 | 2.0 | 2.0 | 0.00 | 0.00 | 0.00 | 70 | 985.7 |
| 20260502030936 | 49 | 354 | 0.0 | 1.0 | 0.00 | 0.00 | 0.00 | 69 | 985.4 |
| 20260502030329 | 50 | 355 | 0.0 | 1.0 | 0.00 | 0.00 | 0.00 | 71 | 985.4 |
| 20260502025726 | 50 | 350 | 0.0 | 2.0 | 0.00 | 0.00 | 0.00 | 71 | 985.4 |
| 20260502025148 | 50 | 356 | 0.0 | 2.0 | 0.00 | 0.00 | 0.00 | 70 | 985.4 |
| 20260502024553 | 50 | 17 | 2.0 | 4.0 | 0.00 | 0.00 | 0.00 | 70 | 985.7 |
| 20260502023949 | 50 | 56 | 1.0 | 2.0 | 0.00 | 0.00 | 0.00 | 72 | 985.7 |
| 20260502023327 | 50 | 344 | 0.0 | 0.0 | 0.00 | 0.00 | 0.00 | 73 | 985.4 |
| 20260502022736 | 50 | 12 | 3.0 | 8.0 | 0.00 | 0.00 | 0.00 | 72 | 985.4 |
| 20260502022149 | 50 | 356 | 0.0 | 3.0 | 0.00 | 0.00 | 0.00 | 71 | 984.7 |
| 20260502021524 | 50 | 348 | 0.0 | 0.0 | 0.00 | 0.00 | 0.00 | 73 | 985.1 |
| 20260502020917 | 51 | 335 | 0.0 | 1.0 | 0.00 | 0.00 | 0.00 | 73 | 984.7 |
| 20260502020338 | 51 | 340 | 0.0 | 1.0 | 0.00 | 0.00 | 0.00 | 73 | 984.7 |
| 20260502015114 | 51 | 351 | 0.0 | 0.0 | 0.00 | 0.00 | 0.00 | 78 | 984.7 |
| 20260502014554 | 50 | 340 | 0.0 | 0.0 | 0.00 | 0.00 | 0.00 | 81 | 984.4 |
| 20260502013953 | 50 | 348 | 0.0 | 0.0 | 0.00 | 0.00 | 0.00 | 84 | 984.4 |
| 20260502013312 | 50 | 348 | 0.0 | 0.0 | 0.00 | 0.00 | 0.00 | 87 | 984.0 |
| 20260502012741 | 51 | 344 | 0.0 | 0.0 | 0.00 | 0.00 | 0.00 | 86 | 984.0 |
| 20260502012136 | 51 | 335 | 0.0 | 0.0 | 0.00 | 0.00 | 0.00 | 86 | 984.0 |
| 20260502011521 | 51 | 348 | 0.0 | 0.0 | 0.00 | 0.00 | 0.00 | 86 | 984.0 |
| 20260502010935 | 51 | 344 | 0.0 | 0.0 | 0.00 | 0.00 | 0.00 | 85 | 983.7 |
| 20260502010317 | 51 | 344 | 0.0 | 0.0 | 0.00 | 0.00 | 0.00 | 85 | 983.7 |
| 20260502005749 | 51 | 343 | 0.0 | 0.0 | 0.00 | 0.00 | 0.00 | 84 | 983.7 |
| 20260502005118 | 51 | 343 | 0.0 | 0.0 | 0.00 | 0.00 | 0.00 | 85 | 983.4 |
| 20260502004519 | 51 | 344 | 0.0 | 0.0 | 0.00 | 0.00 | 0.00 | 85 | 983.4 |
| 20260502003914 | 51 | 336 | 0.0 | 0.0 | 0.00 | 0.00 | 0.00 | 84 | 983.4 |
| 20260502003311 | 51 | 337 | 0.0 | 0.0 | 0.00 | 0.00 | 0.00 | 84 | 983.4 |
| 20260502002144 | 52 | 340 | 0.0 | 0.0 | 0.00 | 0.00 | 0.00 | 83 | 983.4 |
| 20260502001533 | 52 | 335 | 0.0 | 0.0 | 0.00 | 0.00 | 0.00 | 82 | 983.0 |
| 20260502000923 | 52 | 336 | 0.0 | 0.0 | 0.00 | 0.00 | 0.00 | 82 | 982.7 |
| 20260502000354 | 52 | 328 | 0.0 | 0.0 | 0.00 | 0.00 | 0.00 | 81 | 982.7 |
| 20260501235710 | 52 | 337 | 0.0 | 0.0 | 0.00 | 0.00 | 0.00 | 79 | 982.7 |
| 20260501235129 | 53 | 336 | 0.0 | 0.0 | 0.00 | 0.00 | 0.00 | 78 | 982.3 |
| 20260501234529 | 52 | 336 | 0.0 | 0.0 | 0.00 | 0.00 | 0.00 | 75 | 982.3 |
| 20260501233932 | 52 | 340 | 0.0 | 0.0 | 0.00 | 0.00 | 0.00 | 77 | 982.3 |
| 20260501233330 | 53 | 337 | 0.0 | 0.0 | 0.00 | 0.00 | 0.00 | 75 | 982.3 |
| 20260501232119 | 53 | 348 | 0.0 | 0.0 | 0.00 | 0.00 | 0.00 | 74 | |
| 20260501231520 | 53 | 343 | 0.0 | 0.0 | 0.00 | 0.00 | 0.00 | 75 | 982.3 |
| 20260501230915 | 53 | 337 | 0.0 | 0.0 | 0.00 | 0.00 | 0.00 | 77 | 982.3 |
| 20260501230339 | 53 | 356 | 0.0 | 0.0 | 0.00 | 0.00 | 0.00 | 73 | |
| 20260501225745 | 53 | 340 | 1.0 | 2.0 | 0.00 | 0.00 | 0.00 | 73 | |
| 20260501224521 | 55 | 30 | 2.0 | 4.0 | 0.00 | 0.00 | 0.00 | 66 | |
| 20260501223953 | 56 | 340 | 1.0 | 4.0 | 0.00 | 0.00 | 0.00 | 67 | |
| 20260501223351 | 56 | 17 | 4.0 | 6.0 | 0.00 | 0.00 | 0.00 | 66 | |
| 20260501222716 | 56 | 337 | 0.0 | 2.0 | 0.00 | 0.00 | 0.00 | 67 | |
| 20260501222115 | 57 | 348 | 0.0 | 1.0 | 0.00 | 0.00 | 0.00 | 68 | |
| 20260501221520 | 57 | 3 | 1.0 | 2.0 | 0.00 | 0.00 | 0.00 | 69 | |
| 20260501220340 | 56 | 7 | 0.0 | 2.0 | 0.00 | 0.00 | 0.00 | 71 | |
| 20260501215719 | 57 | 28 | 1.0 | 6.0 | 0.00 | 0.00 | 0.00 | 71 | |
| 20260501215129 | 58 | 205 | 2.0 | 3.0 | 0.00 | 0.00 | 0.00 | 69 | |
| 20260501214546 | 58 | 349 | 0.0 | 1.0 | 0.00 | 0.00 | 0.00 | 68 | |
| 20260501213923 | 58 | 19 | 1.0 | 3.0 | 0.00 | 0.00 | 0.00 | 67 | |
| 20260501213324 | 59 | 348 | 2.0 | 2.0 | 0.00 | 0.00 | 0.00 | 67 | |
| 20260501212738 | 57 | 14 | 2.0 | 2.0 | 0.00 | 0.00 | 0.00 | 70 | |
| 20260501212141 | 57 | 18 | 1.0 | 3.0 | 0.00 | 0.00 | 0.00 | 69 | |
| 20260501210942 | 58 | 24 | 0.0 | 6.0 | 0.00 | 0.00 | 0.00 | 72 | |
| 20260501210334 | 58 | 1 | 2.0 | 3.0 | 0.00 | 0.00 | 0.00 | 65 | |
| 20260501205152 | 61 | 51 | 2.0 | 3.0 | 0.00 | 0.00 | 0.00 | 60 | |
| 20260501204536 | 61 | 352 | 0.0 | 2.0 | 0.00 | 0.00 | 0.00 | 58 | |
| 20260501203941 | 61 | 348 | 1.0 | 8.0 | 0.00 | 0.00 | 0.00 | 56 | |
| 20260501203329 | 63 | 358 | 0.0 | 1.0 | 0.00 | 0.00 | 0.00 | 54 | |
| 20260501202716 | 64 | 210 | 3.0 | 4.0 | 0.00 | 0.00 | 0.00 | 51 | |
| 20260501202122 | 63 | 347 | 0.0 | 2.0 | 0.00 | 0.00 | 0.00 | 50 | |
| 20260501201536 | 64 | 352 | 0.0 | 2.0 | 0.00 | 0.00 | 0.00 | 54 | |
| 20260501200947 | 64 | 2 | 2.0 | 3.0 | 0.00 | 0.00 | 0.00 | 46 | |
| 20260501200349 | 64 | 135 | 2.0 | 4.0 | 0.00 | 0.00 | 0.00 | 43 | |
| 20260501195727 | 64 | 340 | 0.0 | 1.0 | 0.00 | 0.00 | 0.00 | 42 | |
| 20260501195125 | 65 | 341 | 1.0 | 4.0 | 0.00 | 0.00 | 0.00 | 41 | |
| 20260501194547 | 65 | 229 | 5.0 | 6.0 | 0.00 | 0.00 | 0.00 | 41 | |
| 20260501193934 | 66 | 31 | 4.0 | 10.0 | 0.00 | 0.00 | 0.00 | 40 | |
| 20260501193314 | 67 | 11 | 2.0 | 4.0 | 0.00 | 0.00 | 0.00 | 41 | |
| 20260501192719 | 68 | 224 | 5.0 | 11.0 | 0.00 | 0.00 | 0.00 | 39 | |
| 20260501192139 | 66 | 346 | 2.0 | 8.0 | 0.00 | 0.00 | 0.00 | 42 | |
| 20260501191517 | 66 | 303 | 2.0 | 6.0 | 0.00 | 0.00 | 0.00 | 39 | |
| 20260501190942 | 67 | 218 | 5.0 | 11.0 | 0.00 | 0.00 | 0.00 | 39 | |
| 20260501190351 | 68 | 312 | 2.0 | 2.0 | 0.00 | 0.00 | 0.00 | 41 | |
| 20260501185727 | 67 | 263 | 2.0 | 3.0 | 0.00 | 0.00 | 0.00 | 39 | |
| 20260501185114 | 67 | 211 | 5.0 | 6.0 | 0.00 | 0.00 | 0.00 | 36 | |
| 20260501184538 | 66 | 343 | 1.0 | 7.0 | 0.00 | 0.00 | 0.00 | 46 | |
| 20260501183947 | 66 | 3 | 1.0 | 1.0 | 0.00 | 0.00 | 0.00 | 37 | |
| 20260501183330 | 66 | 350 | 2.0 | 4.0 | 0.00 | 0.00 | 0.00 | 36 | |
| 20260501182719 | 65 | 38 | 1.0 | 6.0 | 0.00 | 0.00 | 0.00 | 42 | |
| 20260501181520 | 66 | 286 | 2.0 | 7.0 | 0.00 | 0.00 | 0.00 | 33 | |
| 20260501180926 | 67 | 315 | 1.0 | 3.0 | 0.00 | 0.00 | 0.00 | 32 | |
| 20260501180335 | 65 | 282 | 1.0 | 7.0 | 0.00 | 0.00 | 0.00 | 35 | |
| 20260501175130 | 66 | 323 | 2.0 | 3.0 | 0.00 | 0.00 | 0.00 | 37 | |
| 20260501174538 | 67 | 274 | 4.0 | 7.0 | 0.00 | 0.00 | 0.00 | 38 | |
| 20260501173944 | 67 | 267 | 2.0 | 6.0 | 0.00 | 0.00 | 0.00 | 33 | |
| 20260501172714 | 65 | 340 | 1.0 | 3.0 | 0.00 | 0.00 | 0.00 | 33 | |
| 20260501172116 | 65 | 311 | 2.0 | 12.0 | 0.00 | 0.00 | 0.00 | 35 | |
| 20260501171540 | 66 | 235 | 2.0 | 2.0 | 0.00 | 0.00 | 0.00 | 37 | |
| 20260501170341 | 64 | 247 | 2.0 | 4.0 | 0.00 | 0.00 | 0.00 | 41 | |
| 20260501165729 | 63 | 356 | 1.0 | 1.0 | 0.00 | 0.00 | 0.00 | 44 | |
| 20260501164516 | 63 | 353 | 2.0 | 7.0 | 0.00 | 0.00 | 0.00 | 39 | |
| 20260501163947 | 64 | 228 | 0.0 | 2.0 | 0.00 | 0.00 | 0.00 | 43 | |
| 20260501163319 | 63 | 315 | 2.0 | 2.0 | 0.00 | 0.00 | 0.00 | 43 | |
| 20260501162710 | 61 | 307 | 2.0 | 2.0 | 0.00 | 0.00 | 0.00 | 46 | |
| 20260501162117 | 61 | 243 | 2.0 | 4.0 | 0.00 | 0.00 | 0.00 | 45 | |
| 20260501161548 | 62 | 282 | 3.0 | 4.0 | 0.00 | 0.00 | 0.00 | 43 | |
| 20260501160348 | 61 | 246 | 2.0 | 6.0 | 0.00 | 0.00 | 0.00 | 43 | |
| 20260501154524 | 60 | 291 | 2.0 | 6.0 | 0.00 | 0.00 | 0.00 | 46 | |
| 20260501153936 | 61 | 309 | 3.0 | 7.0 | 0.00 | 0.00 | 0.00 | 45 | |
| 20260501153335 | 60 | 294 | 3.0 | 4.0 | 0.00 | 0.00 | 0.00 | 47 | |
| 20260501152730 | 61 | 208 | 4.0 | 6.0 | 0.00 | 0.00 | 0.00 | 49 | 982.3 |
| 20260501152121 | 62 | 13 | 1.0 | 2.0 | 0.00 | 0.00 | 0.00 | 48 | |
| 20260501151524 | 61 | 336 | 1.0 | 4.0 | 0.00 | 0.00 | 0.00 | 46 | 982.3 |
| 20260501150931 | 60 | 226 | 3.0 | 4.0 | 0.00 | 0.00 | 0.00 | 50 | 982.3 |
| 20260501150310 | 60 | 335 | 0.0 | 1.0 | 0.00 | 0.00 | 0.00 | 54 | 982.7 |
| 20260501144544 | 59 | 343 | 1.0 | 4.0 | 0.00 | 0.00 | 0.00 | 58 | 982.7 |
| 20260501143911 | 58 | 8 | 1.0 | 2.0 | 0.00 | 0.00 | 0.00 | 60 | 982.7 |
| 20260501143313 | 57 | 262 | 3.0 | 4.0 | 0.00 | 0.00 | 0.00 | 62 | 982.7 |
| 20260501142711 | 57 | 250 | 2.0 | 3.0 | 0.00 | 0.00 | 0.00 | 66 | 983.0 |
| 20260501141532 | 55 | 268 | 2.0 | 6.0 | 0.00 | 0.00 | 0.00 | 69 | 983.0 |
| 20260501140939 | 54 | 188 | 3.0 | 6.0 | 0.00 | 0.00 | 0.00 | 70 | 982.7 |
| 20260501140325 | 54 | 302 | 2.0 | 2.0 | 0.00 | 0.00 | 0.00 | 75 | 983.0 |
| 20260501135713 | 51 | 323 | 2.0 | 2.0 | 0.00 | 0.00 | 0.00 | 80 | 983.0 |